Terminal Aerodrome Forecast
Issued by NWS Corpus Christi, TX

Home | Current Version | Previous Version | Text Only | Print | Product List | Glossary On
Versions: 1 2 3 4 5 6 7 8 9 10 11 12 13 14 15 16 17 18
000
FTUS44 KCRP 302300
TAFCRP
TAF
KCRP 302330Z 0100/0124 12010KT P6SM SCT025
     FM010700 12006KT P6SM SCT015
      TEMPO 0110/0112 5SM BR
     FM011600 16010KT P6SM SCT035=

USA.gov is the U.S. government's official web portal to all federal, state and local government web resources and services.